Snook, Texas
Current Conditions -  °F | °C
As of 10:53 AM on Thursday 23 Oct 2014 (Local Time) from KCLL Reporting Station
Scattered Clouds Scattered Clouds  
Wind Chill: 69°   Ceiling: Unl
Heat Index: 69°   Visibility: 10mi
Dew Point: 53°   Wind: 5mph
Humidity: 57%   Direction: 140°SE
Pressure: 30.16"   Gusts: NA
Location:  30.49°N, 96.46°W
Report Text: KCLL 231553Z 14004KT 10SM SCT120 21/12 A3016 RMK AO2 RAB13E36 SLP209 P0000 T02060117
Loading
Personal Weather Stations






























Interactive Weather Map
Tropical Storm Tracking
New forecast layout! Learn more

10-Day Weather Forecast

Advertisements
Track Severe Weather on mobile